Time;durP1;ratioP1;P1;durP2;ratioP2;P2;SDS_P1;SDS_P2;PMS_P1;PMS_P2;Temp;Humidity;BMP_temperature;BMP_pressure;BME280_temperature;BME280_humidity;BME280_pressure;Samples;Min_cycle;Max_cycle;Signal;HPM_P1;HPM_P2
2022/03/20 00:00:33;;;;;;;17.02;10.30;;;3.10;84.00;;;;;;4994682;28;20485;-56
2022/03/20 00:03:02;;;;;;;15.18;7.90;;;3.10;83.90;;;;;;4960580;28;20048;-55
2022/03/20 00:05:28;;;;;;;16.13;8.52;;;3.10;83.90;;;;;;4994476;28;20042;-55
2022/03/20 00:07:54;;;;;;;17.60;9.32;;;3.10;83.90;;;;;;4976790;28;20470;-56
2022/03/20 00:10:20;;;;;;;13.52;8.45;;;3.10;84.00;;;;;;4994663;28;20581;-56
2022/03/20 00:12:46;;;;;;;15.13;8.68;;;3.10;84.20;;;;;;4994356;28;20026;-56
2022/03/20 00:15:11;;;;;;;7.53;5.45;;;3.10;84.10;;;;;;4960320;28;20437;-56
2022/03/20 00:17:37;;;;;;;14.55;8.93;;;3.00;84.50;;;;;;4993377;28;20034;-56
2022/03/20 00:20:04;;;;;;;11.77;7.55;;;2.90;84.70;;;;;;4994749;28;20030;-56
2022/03/20 00:22:31;;;;;;;17.83;7.95;;;2.90;84.50;;;;;;4994480;28;20030;-56
2022/03/20 00:24:57;;;;;;;13.52;9.15;;;2.90;84.60;;;;;;4994009;28;20030;-56
2022/03/20 00:27:24;;;;;;;14.07;9.80;;;2.90;84.60;;;;;;4994272;28;20026;-56
2022/03/20 00:29:50;;;;;;;12.60;8.43;;;3.00;84.50;;;;;;4994016;28;20100;-56
2022/03/20 00:32:16;;;;;;;14.13;8.95;;;3.00;84.70;;;;;;4994352;28;20040;-55
2022/03/20 00:34:42;;;;;;;12.65;7.95;;;3.00;84.80;;;;;;4994294;28;20462;-56
2022/03/20 00:37:08;;;;;;;17.77;9.02;;;3.10;84.60;;;;;;4994077;28;20037;-55
2022/03/20 00:39:35;;;;;;;14.88;9.70;;;3.20;84.70;;;;;;4927996;28;20034;-56
2022/03/20 00:42:01;;;;;;;12.52;8.48;;;3.20;84.40;;;;;;4994231;28;20052;-56
2022/03/20 00:44:27;;;;;;;17.83;9.50;;;3.30;83.80;;;;;;4993821;28;20045;-56
2022/03/20 00:46:53;;;;;;;13.95;8.88;;;3.30;83.60;;;;;;4994196;28;20030;-56
2022/03/20 00:49:20;;;;;;;15.07;8.77;;;3.20;83.70;;;;;;4994000;28;20057;-56
2022/03/20 00:51:45;;;;;;;14.80;8.23;;;3.20;83.70;;;;;;4994313;28;20080;-56
2022/03/20 00:54:11;;;;;;;13.50;8.27;;;3.10;83.70;;;;;;4994008;28;20026;-56
2022/03/20 00:56:38;;;;;;;16.95;8.80;;;3.10;83.80;;;;;;4993769;28;20038;-56
2022/03/20 00:59:05;;;;;;;14.18;8.93;;;3.00;84.20;;;;;;4994006;28;20027;-56
2022/03/20 01:01:31;;;;;;;13.95;8.02;;;2.90;84.40;;;;;;4993839;28;20077;-56
2022/03/20 01:03:57;;;;;;;11.88;6.95;;;;;;;;;;4993682;28;20391;-56
2022/03/20 01:06:23;;;;;;;10.68;6.93;;;2.80;99.90;;;;;;4959717;28;20471;-55
2022/03/20 01:08:49;;;;;;;12.05;7.53;;;2.90;84.50;;;;;;4959526;28;20038;-56
2022/03/20 01:11:16;;;;;;;11.55;7.60;;;3.10;84.60;;;;;;4993691;28;20032;-56
2022/03/20 01:13:43;;;;;;;11.90;7.20;;;2.90;84.60;;;;;;4994097;28;20026;-56
2022/03/20 01:16:08;;;;;;;14.82;7.97;;;2.90;85.10;;;;;;4993481;28;20047;-56
2022/03/20 01:18:34;;;;;;;13.63;8.05;;;2.90;98.80;;;;;;4959637;28;20089;-56
2022/03/20 01:21:00;;;;;;;11.38;7.20;;;2.90;85.60;;;;;;4993563;28;20034;-56
2022/03/20 01:23:26;;;;;;;11.60;6.82;;;2.80;85.40;;;;;;4990889;28;20470;-56
2022/03/20 01:25:52;;;;;;;15.43;8.48;;;2.70;85.70;;;;;;4993723;28;20521;-56
2022/03/20 01:28:19;;;;;;;12.27;8.32;;;2.80;85.90;;;;;;4994009;28;20039;-56
2022/03/20 01:30:47;;;;;;;12.60;7.90;;;2.80;85.70;;;;;;4977001;28;20483;-56
2022/03/20 01:33:14;;;;;;;13.80;8.05;;;2.90;85.70;;;;;;4997773;28;20169;-56
2022/03/20 01:35:41;;;;;;;10.90;6.93;;;2.80;85.70;;;;;;4997375;28;20027;-55
2022/03/20 01:38:07;;;;;;;12.50;7.43;;;2.80;85.60;;;;;;4997180;28;20026;-56
2022/03/20 01:40:34;;;;;;;13.77;8.60;;;2.80;85.40;;;;;;4997207;28;20089;-55
2022/03/20 01:43:01;;;;;;;13.38;8.43;;;2.80;85.70;;;;;;4997090;28;20033;-56
2022/03/20 01:45:26;;;;;;;13.57;8.70;;;2.80;85.60;;;;;;4997337;28;20112;-56
2022/03/20 01:47:54;;;;;;;10.88;7.63;;;2.80;85.30;;;;;;4997332;28;20054;-55
2022/03/20 01:50:29;;;;;;;11.23;6.82;;;2.90;85.50;;;;;;4997166;28;20034;-55
2022/03/20 01:52:55;;;;;;;12.00;7.90;;;2.70;85.20;;;;;;4962727;28;20092;-56
2022/03/20 01:55:24;;;;;;;12.95;7.95;;;2.80;85.40;;;;;;4997063;28;20073;-55
2022/03/20 01:57:50;;;;;;;7.32;5.30;;;2.80;85.50;;;;;;4996782;28;20474;-56
2022/03/20 02:00:19;;;;;;;11.07;7.40;;;;;;;;;;4996815;28;20109;-56
2022/03/20 02:02:46;;;;;;;13.25;8.20;;;2.70;84.70;;;;;;4962792;28;20112;-55
2022/03/20 02:05:12;;;;;;;11.85;7.35;;;2.70;85.20;;;;;;4997100;28;20038;-55
2022/03/20 02:07:40;;;;;;;6.97;5.47;;;2.70;85.10;;;;;;4997140;28;20063;-55
2022/03/20 02:10:07;;;;;;;10.15;6.13;;;2.70;84.90;;;;;;4978727;28;20384;-56
2022/03/20 02:12:35;;;;;;;8.98;5.93;;;2.70;85.20;;;;;;4996562;28;20073;-56
2022/03/20 02:15:01;;;;;;;11.65;7.70;;;2.50;85.30;;;;;;4976028;28;20406;-56
2022/03/20 02:17:29;;;;;;;10.98;6.53;;;2.70;91.90;;;;;;4962449;28;20495;-56
2022/03/20 02:20:03;;;;;;;11.88;7.13;;;2.40;85.60;;;;;;4979112;28;20034;-55
2022/03/20 02:22:30;;;;;;;12.88;8.15;;;2.60;85.90;;;;;;4996478;28;20126;-56
2022/03/20 02:24:56;;;;;;;11.73;7.45;;;2.60;86.50;;;;;;4996280;28;20042;-55
2022/03/20 02:27:24;;;;;;;14.52;8.18;;;2.60;86.20;;;;;;4996557;28;20031;-56
2022/03/20 02:29:57;;;;;;;10.25;6.47;;;2.60;86.10;;;;;;4996450;28;20062;-57
2022/03/20 02:32:27;;;;;;;11.00;6.50;;;2.50;86.10;;;;;;4996330;28;20379;-56
2022/03/20 02:34:54;;;;;;;13.13;8.23;;;2.60;86.00;;;;;;4996074;28;20675;-55
2022/03/20 02:37:22;;;;;;;13.23;8.57;;;2.60;86.20;;;;;;4996189;28;20297;-56
2022/03/20 02:39:50;;;;;;;10.88;7.22;;;2.60;85.80;;;;;;4995631;28;20078;-56
2022/03/20 02:42:16;;;;;;;7.85;4.07;;;2.50;85.80;;;;;;4996006;28;20037;-55
2022/03/20 02:45:08;;;;;;;10.15;6.93;;;2.40;85.60;;;;;;4945775;28;20042;-56
2022/03/20 02:47:37;;;;;;;11.35;6.45;;;2.50;85.10;;;;;;4996101;28;20030;-56
2022/03/20 02:50:09;;;;;;;11.60;7.82;;;2.50;85.70;;;;;;4995811;28;20038;-56
2022/03/20 02:52:43;;;;;;;;;;;2.50;85.60;;;;;;4996310;28;20027;-56
2022/03/20 02:55:09;;;;;;;10.27;6.38;;;2.50;85.40;;;;;;4995779;28;19913;-56
2022/03/20 02:57:35;;;;;;;8.13;4.95;;;2.50;85.50;;;;;;4995901;28;20367;-56
2022/03/20 03:00:05;;;;;;;12.00;6.80;;;2.40;85.40;;;;;;4996161;28;20180;-56
2022/03/20 03:02:35;;;;;;;10.63;6.45;;;2.50;85.30;;;;;;4995620;28;20084;-56
2022/03/20 03:05:01;;;;;;;8.73;5.85;;;2.50;85.30;;;;;;4995534;28;20038;-56
2022/03/20 03:07:28;;;;;;;9.38;6.20;;;2.50;85.10;;;;;;4995640;28;20023;-56
2022/03/20 03:12:38;;;;;;;8.32;5.22;;;2.40;85.20;;;;;;4995572;28;20097;-56
2022/03/20 03:15:19;;;;;;;9.57;5.70;;;2.30;85.80;;;;;;4995144;28;20070;-56
2022/03/20 03:17:46;;;;;;;10.07;6.15;;;2.30;86.40;;;;;;4995444;28;20023;-56
2022/03/20 03:20:12;;;;;;;9.73;6.60;;;2.30;86.70;;;;;;4995329;28;20478;-56
2022/03/20 03:22:38;;;;;;;9.02;6.35;;;2.20;86.40;;;;;;4995720;28;20497;-56
2022/03/20 03:25:05;;;;;;;12.38;7.40;;;2.30;86.20;;;;;;4962664;28;20046;-56
2022/03/20 03:27:31;;;;;;;10.95;6.35;;;2.40;86.80;;;;;;4963197;28;20046;-56
2022/03/20 03:29:57;;;;;;;8.50;5.35;;;2.30;86.60;;;;;;4997656;28;20049;-56
2022/03/20 03:32:23;;;;;;;12.30;7.18;;;2.10;86.00;;;;;;4996595;28;20053;-56
2022/03/20 03:37:33;;;;;;;7.00;4.97;;;2.20;86.10;;;;;;4995344;28;20044;-56
2022/03/20 03:40:01;;;;;;;10.75;7.22;;;2.20;85.60;;;;;;4994867;28;20077;-57
2022/03/20 03:42:27;;;;;;;7.25;5.10;;;2.30;86.00;;;;;;4960907;28;20077;-56
2022/03/20 03:44:54;;;;;;;10.88;6.55;;;2.20;85.60;;;;;;4960925;28;20050;-56
2022/03/20 03:47:20;;;;;;;9.07;6.45;;;2.30;85.90;;;;;;4994786;28;20482;-56
2022/03/20 03:49:45;;;;;;;9.40;6.75;;;2.40;85.80;;;;;;4994909;28;20037;-56
2022/03/20 03:52:12;;;;;;;9.73;6.45;;;2.30;86.10;;;;;;4960266;28;20061;-56
2022/03/20 03:54:37;;;;;;;11.80;6.13;;;2.40;85.90;;;;;;4994678;28;20030;-56
2022/03/20 03:57:04;;;;;;;9.20;6.55;;;2.50;85.60;;;;;;4994627;28;20088;-57
2022/03/20 03:59:30;;;;;;;12.18;7.65;;;2.30;85.10;;;;;;4960795;28;20038;-56
2022/03/20 04:01:56;;;;;;;11.52;6.57;;;2.30;85.30;;;;;;4994688;28;20029;-56
2022/03/20 04:04:22;;;;;;;11.10;7.20;;;2.30;85.50;;;;;;4994760;28;20035;-56
2022/03/20 04:06:47;;;;;;;13.02;6.93;;;2.20;85.70;;;;;;4994580;28;20030;-56
2022/03/20 04:09:13;;;;;;;10.65;7.80;;;2.20;85.60;;;;;;4994768;28;20053;-56
2022/03/20 04:11:39;;;;;;;9.20;6.45;;;2.30;85.70;;;;;;4994451;28;20030;-56
2022/03/20 04:14:05;;;;;;;9.48;6.47;;;2.40;85.40;;;;;;4994619;28;20029;-56
2022/03/20 04:16:31;;;;;;;8.93;6.63;;;2.30;85.30;;;;;;4994355;28;20046;-56
2022/03/20 04:18:57;;;;;;;7.97;5.85;;;2.20;85.00;;;;;;4994264;28;20093;-56
2022/03/20 04:21:22;;;;;;;8.80;5.80;;;2.40;85.40;;;;;;4994253;28;20018;-56
2022/03/20 04:23:49;;;;;;;8.75;6.05;;;2.30;84.60;;;;;;4994176;28;20438;-56
2022/03/20 04:26:20;;;;;;;9.30;6.22;;;2.40;84.60;;;;;;4994064;28;20038;-56
2022/03/20 04:28:47;;;;;;;8.63;6.63;;;2.40;85.00;;;;;;4994208;28;20040;-56
2022/03/20 04:31:16;;;;;;;9.57;6.00;;;2.40;84.50;;;;;;4994080;28;20030;-56
2022/03/20 04:33:50;;;;;;;8.88;6.13;;;2.50;84.70;;;;;;4994237;28;20026;-56
2022/03/20 04:36:17;;;;;;;11.48;6.93;;;2.50;84.10;;;;;;4994521;28;20030;-56
2022/03/20 04:38:43;;;;;;;11.45;6.13;;;2.60;84.00;;;;;;4994050;28;20026;-56
2022/03/20 04:41:09;;;;;;;10.82;5.75;;;2.70;83.50;;;;;;4993882;28;20367;-56
2022/03/20 04:43:35;;;;;;;9.52;5.28;;;2.70;83.50;;;;;;4993977;28;20106;-56
2022/03/20 04:46:01;;;;;;;8.02;5.15;;;2.70;83.20;;;;;;4994376;28;20034;-56
2022/03/20 04:59:24;;;;;;;7.93;5.22;;;2.50;83.30;;;;;;4994028;28;20044;-56
2022/03/20 05:01:50;;;;;;;9.43;5.28;;;2.40;84.40;;;;;;4993841;28;20026;-56
2022/03/20 05:04:16;;;;;;;8.43;5.32;;;2.40;84.70;;;;;;4995870;28;20037;-56
2022/03/20 05:06:45;;;;;;;7.60;5.30;;;2.30;86.00;;;;;;4997105;28;20038;-56
2022/03/20 05:14:41;;;;;;;7.72;4.90;;;;;;;;;;4991043;28;20509;-57
2022/03/20 05:17:09;;;;;;;11.15;6.05;;;2.00;85.80;;;;;;4996942;28;20387;-56
2022/03/20 05:19:35;;;;;;;8.40;5.15;;;2.10;85.40;;;;;;4997200;28;20026;-56
2022/03/20 05:22:06;;;;;;;8.85;5.65;;;2.00;85.80;;;;;;4997070;28;20030;-56
2022/03/20 05:24:35;;;;;;;8.70;5.72;;;2.00;86.50;;;;;;4960591;28;20064;-56
2022/03/20 05:27:01;;;;;;;8.90;5.95;;;2.20;86.60;;;;;;4997109;28;20027;-56
2022/03/20 05:29:27;;;;;;;8.52;5.25;;;2.40;85.90;;;;;;4997057;28;20033;-56
2022/03/20 05:31:53;;;;;;;8.30;5.10;;;2.30;85.90;;;;;;4997298;28;20031;-56
2022/03/20 05:34:19;;;;;;;9.10;5.45;;;2.40;85.60;;;;;;4996743;28;20054;-52
2022/03/20 05:36:46;;;;;;;7.68;4.55;;;2.40;86.00;;;;;;4959168;28;20198;-60
2022/03/20 05:39:12;;;;;;;7.32;4.40;;;2.50;85.10;;;;;;4962262;28;20042;-59
2022/03/20 05:41:46;;;;;;;9.05;5.13;;;2.40;84.60;;;;;;4994362;28;20030;-59
2022/03/20 05:44:16;;;;;;;6.15;4.60;;;2.50;85.20;;;;;;4996237;28;20394;-59
2022/03/20 05:46:43;;;;;;;10.98;5.35;;;2.60;84.80;;;;;;4996931;28;20061;-59
2022/03/20 05:49:09;;;;;;;8.98;5.43;;;2.70;84.60;;;;;;4996726;28;20489;-59
2022/03/20 05:51:34;;;;;;;7.57;4.68;;;2.80;84.40;;;;;;4993739;28;20015;-59
2022/03/20 05:54:03;;;;;;;9.65;5.15;;;2.90;83.50;;;;;;4996542;28;20054;-59
2022/03/20 05:59:13;;;;;;;7.03;4.38;;;2.80;82.90;;;;;;4996890;28;20050;-60
2022/03/20 06:01:39;;;;;;;8.00;5.32;;;2.80;83.10;;;;;;4996050;28;20027;-60
2022/03/20 06:04:06;;;;;;;8.73;5.72;;;2.90;82.90;;;;;;4996127;28;20034;-59
2022/03/20 06:06:32;;;;;;;11.02;6.18;;;3.00;83.80;;;;;;4996030;28;20482;-60
2022/03/20 06:08:58;;;;;;;13.00;6.80;;;3.00;82.50;;;;;;4996098;28;20069;-59
2022/03/20 06:11:24;;;;;;;7.78;4.70;;;3.00;82.30;;;;;;4996462;28;20035;-59
2022/03/20 06:13:50;;;;;;;7.25;4.75;;;3.10;82.30;;;;;;4996671;28;20034;-59
2022/03/20 06:16:17;;;;;;;12.00;7.53;;;3.20;81.70;;;;;;4994651;28;20408;-59
2022/03/20 06:18:44;;;;;;;5.55;3.63;;;3.10;82.20;;;;;;4995902;28;20026;-59
2022/03/20 06:21:11;;;;;;;11.27;6.25;;;3.20;81.40;;;;;;4996214;28;20023;-59
2022/03/20 06:23:37;;;;;;;10.43;7.15;;;3.50;82.20;;;;;;4993319;28;20105;-60
2022/03/20 06:26:04;;;;;;;8.07;5.55;;;3.70;81.60;;;;;;4995831;28;20029;-60
2022/03/20 06:28:30;;;;;;;6.47;4.07;;;3.80;81.10;;;;;;4995748;28;21857;-60
2022/03/20 06:30:56;;;;;;;8.60;3.75;;;3.80;80.50;;;;;;4993043;28;20081;-59
2022/03/20 06:33:25;;;;;;;7.85;4.57;;;3.90;79.80;;;;;;4995144;28;20036;-59
2022/03/20 06:35:52;;;;;;;7.40;3.67;;;3.90;79.90;;;;;;4976965;28;20457;-59
2022/03/20 06:38:18;;;;;;;6.97;3.70;;;3.90;79.90;;;;;;4993669;28;20451;-60
2022/03/20 06:40:44;;;;;;;9.52;5.20;;;4.00;79.80;;;;;;4995976;28;20022;-59
2022/03/20 06:43:10;;;;;;;7.47;4.57;;;4.30;79.20;;;;;;4995434;28;20022;-59
2022/03/20 06:45:36;;;;;;;5.35;3.00;;;4.40;78.00;;;;;;4945096;28;20049;-59
2022/03/20 06:48:03;;;;;;;7.65;4.53;;;4.40;78.40;;;;;;4976879;28;20049;-60
2022/03/20 06:50:29;;;;;;;9.73;5.18;;;4.60;78.90;;;;;;4995741;28;20042;-60
2022/03/20 06:53:01;;;;;;;8.15;4.70;;;;;;;;;;4935237;29;20042;-59
2022/03/20 06:55:28;;;;;;;9.15;6.13;;;;;;;;;;4934568;29;20091;-61
2022/03/20 06:57:54;;;;;;;4.40;2.78;;;;;;;;;;4935059;29;20115;-60
2022/03/20 07:00:20;;;;;;;8.02;4.72;;;;;;;;;;4935300;29;20038;-60
2022/03/20 07:02:47;;;;;;;5.68;3.70;;;;;;;;;;4928098;29;20186;-59
2022/03/20 07:05:13;;;;;;;5.40;3.10;;;;;;;;;;4923766;29;20516;-59
2022/03/20 07:07:40;;;;;;;5.35;2.72;;;;;;;;;;4927651;29;20527;-59
2022/03/20 07:10:07;;;;;;;4.05;2.80;;;;;;;;;;4927485;29;20039;-60
2022/03/20 07:12:34;;;;;;;7.05;4.07;;;;;;;;;;4929123;29;20093;-60
2022/03/20 07:15:00;;;;;;;9.82;5.93;;;6.40;75.70;;;;;;4920034;29;20032;-60
2022/03/20 07:17:28;;;;;;;9.40;5.20;;;6.40;74.90;;;;;;4928586;29;20059;-59
2022/03/20 07:19:54;;;;;;;6.20;3.85;;;6.40;74.50;;;;;;4930868;29;20023;-59
2022/03/20 07:22:22;;;;;;;4.53;3.42;;;6.60;74.10;;;;;;4928390;29;20047;-59
2022/03/20 07:24:48;;;;;;;5.57;3.33;;;6.70;73.30;;;;;;4977451;28;20101;-59
2022/03/20 07:29:58;;;;;;;11.57;4.28;;;6.40;73.00;;;;;;4986844;28;20060;-59
2022/03/20 07:32:24;;;;;;;4.85;3.33;;;6.60;74.70;;;;;;4986556;28;20074;-60
2022/03/20 07:34:50;;;;;;;6.53;4.50;;;6.80;73.30;;;;;;4990022;28;20038;-59
2022/03/20 07:37:17;;;;;;;7.18;4.22;;;6.90;73.50;;;;;;4970395;28;20034;-59
2022/03/20 07:39:48;;;;;;;5.70;3.30;;;6.80;72.30;;;;;;4985389;28;20037;-59
2022/03/20 07:42:18;;;;;;;6.63;4.20;;;6.80;71.90;;;;;;4985192;28;20022;-59
2022/03/20 07:44:44;;;;;;;4.90;3.15;;;7.30;73.40;;;;;;4990810;28;20410;-59
2022/03/20 07:47:20;;;;;;;9.80;4.78;;;6.90;71.50;;;;;;4989467;28;20030;-59
2022/03/20 07:49:47;;;;;;;7.88;4.97;;;7.30;73.00;;;;;;4986800;28;20027;-59
2022/03/20 07:52:13;;;;;;;5.85;3.25;;;7.60;71.90;;;;;;4968654;28;20121;-59
2022/03/20 07:54:39;;;;;;;5.68;3.75;;;7.60;70.60;;;;;;4987103;28;20034;-59
2022/03/20 07:57:07;;;;;;;6.63;4.20;;;7.60;70.30;;;;;;4989163;28;20031;-59
2022/03/20 07:59:33;;;;;;;4.22;2.67;;;7.60;71.40;;;;;;4968703;28;20042;-59
2022/03/20 08:01:58;;;;;;;4.07;2.88;;;7.40;69.30;;;;;;4986615;28;20042;-59
2022/03/20 08:04:24;;;;;;;4.43;2.95;;;7.40;70.60;;;;;;4989938;28;20537;-59
2022/03/20 08:06:50;;;;;;;4.25;2.50;;;7.50;69.80;;;;;;4985905;28;20042;-59
2022/03/20 08:09:17;;;;;;;6.50;4.50;;;7.80;70.80;;;;;;4987657;28;20635;-60
2022/03/20 08:11:42;;;;;;;5.82;3.88;;;8.00;68.80;;;;;;4986390;28;20114;-59
2022/03/20 08:14:09;;;;;;;5.53;3.90;;;8.10;69.40;;;;;;4954981;28;20129;-59
2022/03/20 08:16:39;;;;;;;3.80;2.78;;;8.30;70.80;;;;;;4984680;28;20089;-59
2022/03/20 08:19:07;;;;;;;6.43;3.33;;;8.00;69.40;;;;;;4982409;28;20509;-59
2022/03/20 08:21:33;;;;;;;8.02;4.63;;;7.60;70.50;;;;;;4977141;28;20046;-59
2022/03/20 08:24:02;;;;;;;6.00;2.97;;;8.30;70.50;;;;;;4949714;28;20414;-58
2022/03/20 08:26:31;;;;;;;5.50;3.58;;;7.50;68.90;;;;;;4985358;28;20089;-59
2022/03/20 08:28:59;;;;;;;5.13;2.90;;;7.70;68.60;;;;;;4983430;28;20034;-58
2022/03/20 08:31:25;;;;;;;5.00;3.22;;;8.10;69.00;;;;;;4981252;28;20134;-55
2022/03/20 08:33:51;;;;;;;4.78;3.05;;;8.10;68.20;;;;;;4973339;28;20142;-57
2022/03/20 08:36:17;;;;;;;3.22;2.30;;;7.80;67.60;;;;;;4981077;28;20465;-58
2022/03/20 08:38:43;;;;;;;7.40;4.22;;;7.80;68.00;;;;;;4977749;28;20043;-54
2022/03/20 08:41:09;;;;;;;4.70;3.15;;;8.90;69.80;;;;;;4980755;28;20038;-53
2022/03/20 08:43:35;;;;;;;6.30;3.67;;;9.10;68.20;;;;;;4985882;28;20550;-53
2022/03/20 08:46:01;;;;;;;7.03;3.67;;;9.20;68.60;;;;;;4979631;28;20085;-52
2022/03/20 08:48:27;;;;;;;10.30;5.32;;;9.30;68.50;;;;;;4965466;28;20081;-57
2022/03/20 08:50:52;;;;;;;8.20;4.13;;;9.30;67.20;;;;;;4981624;28;20076;-54
2022/03/20 08:53:20;;;;;;;6.80;4.68;;;;;;;;;;4981688;28;20045;-49
2022/03/20 08:55:47;;;;;;;7.90;4.28;;;;;;;;;;4960119;28;20517;-55
2022/03/20 08:58:13;;;;;;;16.13;5.88;;;;;;;;;;4984914;28;20037;-53
2022/03/20 09:00:39;;;;;;;8.00;3.45;;;;;;;;;;4989091;28;20492;-51
2022/03/20 09:03:06;;;;;;;7.88;4.22;;;;;;;;;;4988148;28;20042;-51
2022/03/20 09:05:32;;;;;;;7.00;4.55;;;;;;;;;;4987655;28;20050;-53
2022/03/20 09:07:59;;;;;;;7.57;4.88;;;;;;;;;;4985703;28;20026;-53
2022/03/20 09:10:25;;;;;;;7.70;4.38;;;;;;;;;;4981054;28;20057;-53
2022/03/20 09:12:55;;;;;;;9.65;4.53;;;;;;;;;;4985689;28;20042;-51
2022/03/20 09:15:22;;;;;;;8.15;4.20;;;;;;;;;;4991679;28;20066;-55
2022/03/20 09:20:41;;;;;;;7.07;4.53;;;;;;;;;;4913465;29;20043;-55
2022/03/20 09:23:09;;;;;;;7.40;3.80;;;;;;;;;;4888071;29;20052;-55
2022/03/20 09:25:35;;;;;;;7.50;4.55;;;11.30;81.40;;;;;;4914989;29;20130;-55
2022/03/20 09:28:02;;;;;;;9.85;4.82;;;;;;;;;;4917082;29;20043;-55
2022/03/20 09:30:28;;;;;;;7.00;4.70;;;;;;;;;;4918015;29;20040;-55
2022/03/20 09:32:54;;;;;;;6.32;2.83;;;;;;;;;;4916601;29;20512;-56
2022/03/20 09:35:20;;;;;;;6.85;3.63;;;;;;;;;;4915279;29;20040;-55
2022/03/20 09:37:47;;;;;;;6.90;3.88;;;;;;;;;;4917463;29;20489;-55
2022/03/20 09:40:13;;;;;;;4.22;2.90;;;;;;;;;;4885025;29;20044;-54
2022/03/20 09:42:40;;;;;;;3.92;3.10;;;;;;;;;;4917785;29;20043;-55
2022/03/20 09:45:09;;;;;;;5.32;3.42;;;;;;;;;;4896142;29;20050;-55
2022/03/20 09:47:35;;;;;;;5.05;3.53;;;;;;;;;;4869962;29;20048;-55
2022/03/20 09:50:01;;;;;;;7.78;3.67;;;;;;;;;;4919327;29;20047;-56
2022/03/20 09:52:28;;;;;;;4.10;2.90;;;;;;;;;;4921038;29;20064;-55
2022/03/20 09:54:54;;;;;;;2.42;2.08;;;;;;;;;;4901248;29;20036;-55
2022/03/20 09:57:20;;;;;;;3.97;2.65;;;;;;;;;;4940967;28;20088;-55
2022/03/20 09:59:48;;;;;;;6.72;3.22;;;;;;;;;;4968555;28;20455;-55
2022/03/20 10:02:14;;;;;;;7.03;3.05;;;12.60;69.30;;;;;;4958910;28;20093;-55
2022/03/20 10:04:53;;;;;;;4.40;3.17;;;12.70;70.20;;;;;;4931801;28;20051;-55
2022/03/20 10:07:29;;;;;;;8.70;5.32;;;11.60;66.70;;;;;;4985641;28;20085;-55
2022/03/20 10:10:29;;;;;;;5.60;3.38;;;13.00;67.80;;;;;;4978989;28;20403;-55
2022/03/20 10:12:58;;;;;;;6.85;4.20;;;12.90;68.70;;;;;;4989889;28;20040;-55
2022/03/20 10:15:33;;;;;;;8.20;5.57;;;;;;;;;;4954800;28;20061;-55
2022/03/20 10:18:17;;;;;;;11.35;4.57;;;13.20;63.60;;;;;;4989552;28;20467;-55
2022/03/20 10:20:50;;;;;;;8.50;3.63;;;12.20;61.60;;;;;;4993953;28;20371;-60
2022/03/20 10:23:36;;;;;;;6.25;2.95;;;12.50;63.80;;;;;;4974913;28;20042;-59
2022/03/20 10:26:16;;;;;;;4.53;3.45;;;13.20;60.90;;;;;;4983388;28;20037;-52
2022/03/20 10:28:44;;;;;;;4.00;3.03;;;13.60;62.20;;;;;;4990088;28;20034;-51
2022/03/20 10:31:15;;;;;;;5.32;3.42;;;12.70;63.60;;;;;;4991351;28;20034;-49
2022/03/20 10:33:43;;;;;;;6.57;4.20;;;13.10;63.00;;;;;;4988819;28;20035;-47
2022/03/20 10:36:14;;;;;;;4.70;3.30;;;13.00;63.90;;;;;;4987441;28;20122;-51
2022/03/20 10:38:42;;;;;;;4.15;2.67;;;13.60;61.40;;;;;;4930499;28;20038;-50
2022/03/20 10:41:27;;;;;;;6.70;3.35;;;13.50;62.40;;;;;;4958016;28;20076;-50
2022/03/20 10:43:57;;;;;;;4.28;3.35;;;12.80;59.80;;;;;;4954006;28;20537;-52
2022/03/20 10:46:31;;;;;;;5.30;2.88;;;12.30;60.60;;;;;;4967877;28;20499;-53
2022/03/20 10:49:02;;;;;;;4.43;3.22;;;11.90;60.30;;;;;;4968149;28;20042;-48
2022/03/20 10:51:39;;;;;;;7.05;4.57;;;13.30;60.00;;;;;;4957908;28;20135;-51
2022/03/20 10:54:13;;;;;;;6.82;4.22;;;13.30;60.80;;;;;;4971348;28;20042;-52
2022/03/20 10:57:00;;;;;;;12.88;6.70;;;14.20;61.20;;;;;;4966822;28;20035;-54
2022/03/20 10:59:27;;;;;;;5.20;3.53;;;13.60;59.20;;;;;;4962988;28;20460;-53
2022/03/20 11:01:53;;;;;;;9.27;5.30;;;13.70;60.50;;;;;;4934806;28;20434;-53
2022/03/20 11:04:20;;;;;;;7.45;4.45;;;14.80;61.70;;;;;;4957178;28;20151;-58
2022/03/20 11:06:48;;;;;;;6.40;5.15;;;14.20;61.10;;;;;;4959566;28;20059;-59
2022/03/20 11:09:15;;;;;;;7.25;4.00;;;14.60;60.20;;;;;;4964556;28;20042;-55
2022/03/20 11:11:52;;;;;;;6.03;3.55;;;13.90;59.70;;;;;;4977862;28;20050;-58
2022/03/20 11:14:20;;;;;;;5.72;4.43;;;13.80;59.50;;;;;;4947210;28;20059;-56
2022/03/20 11:17:06;;;;;;;5.85;4.40;;;14.10;58.90;;;;;;4980634;28;20134;-57
2022/03/20 11:19:35;;;;;;;8.50;4.85;;;14.10;59.90;;;;;;4983378;28;20467;-58
2022/03/20 11:22:09;;;;;;;4.35;3.40;;;13.70;59.80;;;;;;4988287;28;20066;-58
2022/03/20 11:24:36;;;;;;;3.97;2.95;;;13.10;59.20;;;;;;4987592;28;20107;-56
2022/03/20 11:27:04;;;;;;;8.07;4.45;;;12.50;60.60;;;;;;4952862;28;20526;-57
2022/03/20 11:29:36;;;;;;;6.75;4.40;;;12.40;62.30;;;;;;4957889;28;20038;-57
2022/03/20 11:32:02;;;;;;;;;;;12.60;62.00;;;;;;4978761;28;20046;-55
2022/03/20 11:34:29;;;;;;;11.38;5.60;;;12.90;62.80;;;;;;4964535;28;19910;-57
2022/03/20 11:37:08;;;;;;;9.55;5.43;;;12.50;61.40;;;;;;4979477;28;20030;-58
2022/03/20 11:39:36;;;;;;;10.13;6.53;;;13.30;61.60;;;;;;4981197;28;20117;-56
2022/03/20 11:42:21;;;;;;;9.15;6.63;;;;;;;;;;4984442;28;20055;-57
2022/03/20 11:45:00;;;;;;;12.75;7.80;;;14.20;82.80;;;;;;4985554;28;20064;-56
2022/03/20 11:47:30;;;;;;;8.02;4.72;;;13.80;85.00;;;;;;4991641;28;20038;-56
2022/03/20 11:50:19;;;;;;;9.18;5.25;;;13.90;86.00;;;;;;4980735;28;20051;-57
2022/03/20 11:52:58;;;;;;;9.23;5.45;;;14.30;85.60;;;;;;4969338;28;20035;-55
2022/03/20 11:55:24;;;;;;;7.57;3.92;;;14.20;85.20;;;;;;4976055;28;20474;-56
2022/03/20 11:57:50;;;;;;;8.25;4.53;;;14.60;59.80;;;;;;4975243;28;20065;-57
2022/03/20 12:00:19;;;;;;;5.75;4.18;;;14.30;61.10;;;;;;4977842;28;20027;-56
2022/03/20 12:03:02;;;;;;;8.73;5.40;;;14.00;60.40;;;;;;4988623;28;20089;-58
2022/03/20 12:06:08;;;;;;;9.95;6.57;;;14.60;60.30;;;;;;4984692;28;20042;-56
2022/03/20 12:09:10;;;;;;;6.72;5.22;;;14.90;59.70;;;;;;4987637;28;20034;-59
2022/03/20 12:12:03;;;;;;;8.75;5.85;;;14.30;58.90;;;;;;4984620;28;20027;-54
2022/03/20 12:14:39;;;;;;;7.45;5.22;;;14.40;58.70;;;;;;4942413;28;20074;-57
2022/03/20 12:17:07;;;;;;;9.52;5.10;;;14.20;59.20;;;;;;4989940;28;20038;-59
2022/03/20 12:19:54;;;;;;;8.15;4.32;;;14.90;59.70;;;;;;4983950;28;20035;-57
2022/03/20 12:22:19;;;;;;;7.95;4.43;;;15.00;58.60;;;;;;4988755;28;20186;-58
2022/03/20 12:24:54;;;;;;;8.02;4.13;;;15.00;59.30;;;;;;4985735;28;20536;-57
2022/03/20 12:27:20;;;;;;;4.68;3.60;;;14.20;58.80;;;;;;4989279;28;20088;-55
2022/03/20 12:29:52;;;;;;;7.47;4.35;;;14.30;58.20;;;;;;4982163;28;20034;-58
2022/03/20 12:32:19;;;;;;;6.10;4.95;;;14.30;59.70;;;;;;4976471;28;20554;-58
2022/03/20 12:35:05;;;;;;;5.88;4.10;;;14.10;59.70;;;;;;4978233;28;20034;-58
2022/03/20 12:37:31;;;;;;;7.60;5.05;;;13.80;60.10;;;;;;4977531;28;20145;-54
2022/03/20 12:40:07;;;;;;;4.80;3.75;;;14.40;60.10;;;;;;4981558;28;20464;-55
2022/03/20 12:42:35;;;;;;;7.43;4.90;;;14.60;59.50;;;;;;4949432;28;20104;-57
2022/03/20 12:45:03;;;;;;;10.13;7.28;;;14.90;60.20;;;;;;4951569;28;20486;-59
2022/03/20 12:47:29;;;;;;;7.57;4.43;;;14.40;59.80;;;;;;4966048;28;20181;-58
2022/03/20 12:50:00;;;;;;;8.35;5.22;;;14.50;59.10;;;;;;4962357;28;20043;-59
2022/03/20 12:52:29;;;;;;;10.38;4.95;;;14.50;59.30;;;;;;4946862;28;20182;-59
2022/03/20 12:54:57;;;;;;;9.60;5.22;;;14.90;59.50;;;;;;4952654;28;20049;-59
2022/03/20 12:57:50;;;;;;;7.05;4.30;;;15.00;58.80;;;;;;4954209;28;20054;-55
2022/03/20 13:00:20;;;;;;;9.60;4.32;;;14.40;58.00;;;;;;4952800;28;20043;-55
2022/03/20 13:03:03;;;;;;;6.28;3.35;;;14.50;58.30;;;;;;4948910;28;20126;-58
2022/03/20 13:05:33;;;;;;;5.50;2.83;;;14.10;57.60;;;;;;4952462;28;20073;-56
2022/03/20 13:07:59;;;;;;;8.95;4.10;;;14.20;58.90;;;;;;4952722;28;20039;-57
2022/03/20 13:10:32;;;;;;;8.45;4.32;;;13.60;58.00;;;;;;4954662;28;20069;-54
2022/03/20 13:13:01;;;;;;;6.97;4.50;;;14.10;58.90;;;;;;4936643;28;20124;-55
2022/03/20 13:15:31;;;;;;;5.18;3.47;;;14.60;59.00;;;;;;4952520;28;20055;-53
2022/03/20 13:17:59;;;;;;;4.30;3.28;;;14.10;57.60;;;;;;4954486;28;20046;-57
2022/03/20 13:20:33;;;;;;;5.43;3.35;;;13.80;58.00;;;;;;4950384;28;20039;-58
2022/03/20 13:23:22;;;;;;;4.80;3.20;;;14.30;57.90;;;;;;4955612;28;20360;-56
2022/03/20 13:25:51;;;;;;;6.32;3.63;;;13.70;57.60;;;;;;4956038;28;20125;-54
2022/03/20 13:28:30;;;;;;;6.40;4.00;;;13.30;57.80;;;;;;4939727;29;20040;-58
2022/03/20 13:31:14;;;;;;;6.63;4.25;;;13.70;58.50;;;;;;4949736;29;20035;-60
2022/03/20 13:33:51;;;;;;;13.02;6.63;;;14.20;58.30;;;;;;4945991;29;20043;-57
2022/03/20 13:36:18;;;;;;;10.68;5.85;;;14.60;58.30;;;;;;4948081;29;20031;-56
2022/03/20 13:38:46;;;;;;;12.85;7.28;;;14.90;58.60;;;;;;4945540;29;20050;-58
2022/03/20 13:41:23;;;;;;;6.25;4.18;;;15.00;58.80;;;;;;4951220;29;20494;-56